KENW/ENW METAR and TAF weather

Enter ICAO airport designator
Station Type Date Time Source
KENW METAR 2019/02/17 07:53 UTC NOAA

KENW 170753Z AUTO 11008KT 10SM BKN020 OVC026 M03/M07 A3000 RMK AO2 SLP170 T10281067 $


Station Type Date Time Source
KENW Decoded METAR 2019/02/17 07:53 UTC NOAA

KENOSHA REGIONAL AIRPORT, WI, United States (KENW) 42-36N 087-56W 219M
Feb 17, 2019 - 02:53 AM EST / 2019.02.17 0753 UTC
Wind: from the ESE (110 degrees) at 9 MPH (8 KT):0
Visibility: 10 mile(s):0
Sky conditions: overcast
Temperature: 27.0 F (-2.8 C)
Windchill: 17 F (-8 C):1
Dew Point: 19.9 F (-6.7 C)
Relative Humidity: 74%
Pressure (altimeter): 30 in. Hg (1015 hPa)
ob: KENW 170753Z AUTO 11008KT 10SM BKN020 OVC026 M03/M07 A3000 RMK AO2 SLP170 T10281067
cycle: 8

Station Type Date Time Source
KENW TAF 2019/02/17 06:42 UTC NOAA

TAF KENW 170540Z 1706/1806 11013KT P6SM OVC023
FM171100 09010KT P6SM OVC019
FM171300 09011KT 2SM -SN OVC014
FM171500 09012G20KT 1 1/2SM -SN OVC012
FM180000 05011KT 1SM -SN OVC011


Example: see airport list